createdAt,value
2017-08-29T00:01:11.641Z,21.40
2017-08-29T00:03:39.144Z,21.40
2017-08-29T00:06:06.635Z,21.40
2017-08-29T00:08:34.245Z,21.30
2017-08-29T00:11:01.732Z,21.30
2017-08-29T00:13:29.239Z,21.20
2017-08-29T00:15:56.721Z,21.20
2017-08-29T00:18:24.223Z,21.20
2017-08-29T00:20:51.708Z,21.20
2017-08-29T00:23:19.980Z,21.20
2017-08-29T00:25:47.470Z,21.10
2017-08-29T00:28:14.981Z,21.10
2017-08-29T00:30:42.472Z,21.10
2017-08-29T00:33:09.980Z,21.00
2017-08-29T00:35:37.467Z,21.00
2017-08-29T00:38:04.971Z,21.00
2017-08-29T00:40:32.456Z,21.00
2017-08-29T00:42:59.939Z,21.00
2017-08-29T00:45:27.444Z,20.90
2017-08-29T00:47:54.932Z,20.80
2017-08-29T00:50:22.431Z,20.80
2017-08-29T00:52:49.912Z,20.60
2017-08-29T00:55:17.415Z,20.60
2017-08-29T00:57:44.900Z,20.50
2017-08-29T01:00:12.404Z,20.60
2017-08-29T01:02:39.887Z,20.60
2017-08-29T01:05:07.391Z,20.50
2017-08-29T01:07:34.881Z,20.50
2017-08-29T01:10:02.387Z,20.50
2017-08-29T01:12:29.872Z,20.40
2017-08-29T01:14:57.384Z,20.40
2017-08-29T01:17:24.871Z,20.30
2017-08-29T01:19:52.376Z,20.40
2017-08-29T01:22:19.855Z,20.40
2017-08-29T01:24:47.352Z,20.20
2017-08-29T01:27:14.840Z,20.10
2017-08-29T01:29:42.343Z,20.10
2017-08-29T01:32:09.832Z,20.10
2017-08-29T01:34:37.320Z,20.10
2017-08-29T01:37:04.828Z,20.20
2017-08-29T01:39:32.317Z,20.00
2017-08-29T01:41:59.824Z,19.90
2017-08-29T01:44:27.307Z,20.00
2017-08-29T01:46:54.816Z,20.00
2017-08-29T01:49:22.305Z,20.10
2017-08-29T01:51:49.812Z,20.00
2017-08-29T01:54:17.303Z,20.00
2017-08-29T01:56:44.800Z,19.90
2017-08-29T01:59:12.284Z,19.80
2017-08-29T02:01:39.789Z,19.80
2017-08-29T02:04:07.267Z,19.90
2017-08-29T02:06:34.780Z,19.90
2017-08-29T02:09:02.270Z,19.90
2017-08-29T02:11:29.775Z,20.00
2017-08-29T02:13:57.256Z,19.90
2017-08-29T02:16:24.760Z,20.00
2017-08-29T02:18:52.243Z,20.00
2017-08-29T02:21:19.752Z,19.90
2017-08-29T02:23:47.236Z,19.80
2017-08-29T02:26:14.740Z,19.90
2017-08-29T02:28:42.223Z,19.90
2017-08-29T02:31:09.736Z,19.90
2017-08-29T02:33:37.219Z,19.80
2017-08-29T02:36:04.708Z,19.90
2017-08-29T02:38:32.212Z,19.80
2017-08-29T02:40:59.700Z,19.90
2017-08-29T02:43:27.207Z,19.90
2017-08-29T02:45:54.688Z,19.70
2017-08-29T02:48:22.197Z,19.70
2017-08-29T02:50:49.687Z,19.70
2017-08-29T02:53:17.188Z,19.70
2017-08-29T02:55:44.673Z,19.70
2017-08-29T02:58:12.175Z,19.70
2017-08-29T03:00:39.686Z,19.70
2017-08-29T03:03:07.178Z,19.70
2017-08-29T03:05:34.659Z,19.80
2017-08-29T03:08:02.172Z,19.70
2017-08-29T03:10:29.657Z,19.60
2017-08-29T03:12:57.160Z,19.70
2017-08-29T03:15:24.652Z,19.60
2017-08-29T03:17:52.159Z,19.60
2017-08-29T03:20:19.640Z,19.60
2017-08-29T03:22:47.144Z,19.70
2017-08-29T03:25:14.635Z,19.60
2017-08-29T03:27:42.750Z,19.60
2017-08-29T03:30:10.244Z,19.60
2017-08-29T03:32:37.757Z,19.70
2017-08-29T03:35:05.244Z,19.60
2017-08-29T03:37:32.728Z,19.60
2017-08-29T03:40:00.240Z,19.60
2017-08-29T03:42:27.727Z,19.50
2017-08-29T03:44:55.232Z,19.50
2017-08-29T03:47:22.707Z,19.40
2017-08-29T03:49:50.975Z,19.40
2017-08-29T03:52:18.455Z,19.30
2017-08-29T03:54:45.951Z,19.40
2017-08-29T03:57:13.428Z,19.40
2017-08-29T03:59:40.940Z,19.40
2017-08-29T04:02:08.432Z,19.50
2017-08-29T04:04:35.932Z,19.50
2017-08-29T04:07:03.411Z,19.50
2017-08-29T04:09:30.911Z,19.40
2017-08-29T04:11:58.392Z,19.40
2017-08-29T04:14:25.892Z,19.30
2017-08-29T04:16:53.374Z,19.30
2017-08-29T04:19:20.880Z,19.30
2017-08-29T04:21:48.368Z,19.30
2017-08-29T04:24:15.877Z,19.30
2017-08-29T04:26:43.364Z,19.30
2017-08-29T04:29:10.870Z,19.30
2017-08-29T04:31:38.352Z,19.30
2017-08-29T04:34:05.869Z,19.20
2017-08-29T04:36:33.347Z,19.20
2017-08-29T04:39:00.836Z,19.20
2017-08-29T04:41:28.340Z,19.20
2017-08-29T04:43:55.827Z,19.20
2017-08-29T04:46:23.332Z,19.20
2017-08-29T04:48:50.812Z,19.20
2017-08-29T04:51:18.315Z,19.20
2017-08-29T04:53:45.795Z,19.20
2017-08-29T04:56:13.295Z,19.20
2017-08-29T04:58:40.771Z,19.20
2017-08-29T05:01:08.267Z,19.10
2017-08-29T05:03:35.748Z,19.20
2017-08-29T05:06:03.248Z,19.00
2017-08-29T05:08:30.722Z,19.00
2017-08-29T05:10:58.223Z,19.00
2017-08-29T05:13:25.708Z,18.90
2017-08-29T05:15:53.212Z,18.90
2017-08-29T05:18:20.697Z,18.90
2017-08-29T05:20:48.197Z,18.90
2017-08-29T05:23:15.683Z,18.90
2017-08-29T05:25:43.188Z,19.00
2017-08-29T05:28:10.680Z,19.00
2017-08-29T05:30:38.187Z,19.10
2017-08-29T05:33:05.664Z,19.20
2017-08-29T05:35:33.186Z,19.20
2017-08-29T05:38:00.669Z,19.20
2017-08-29T05:40:28.152Z,19.20
2017-08-29T05:42:55.648Z,19.30
2017-08-29T05:45:23.136Z,19.30
2017-08-29T05:47:50.633Z,19.30
2017-08-29T05:50:18.108Z,19.40
2017-08-29T05:52:45.609Z,19.40
2017-08-29T05:55:13.092Z,19.40
2017-08-29T05:57:40.792Z,19.40
2017-08-29T06:00:08.272Z,19.50
2017-08-29T06:02:35.772Z,19.60
2017-08-29T06:05:03.248Z,19.70
2017-08-29T06:07:30.751Z,19.60
2017-08-29T06:09:58.227Z,19.60
2017-08-29T06:12:25.716Z,19.60
2017-08-29T06:14:53.200Z,19.70
2017-08-29T06:17:20.701Z,19.70
2017-08-29T06:19:48.948Z,19.90
2017-08-29T06:22:16.460Z,19.80
2017-08-29T06:24:43.948Z,20.00
2017-08-29T06:27:11.451Z,20.10
2017-08-29T06:29:38.936Z,20.10
2017-08-29T06:32:06.436Z,20.20
2017-08-29T06:34:33.915Z,20.30
2017-08-29T06:37:01.396Z,20.30
2017-08-29T06:39:28.908Z,20.50
2017-08-29T06:41:56.397Z,20.60
2017-08-29T06:44:23.904Z,20.80
2017-08-29T06:46:51.389Z,20.90
2017-08-29T06:49:18.887Z,21.10
2017-08-29T06:51:46.370Z,21.10
2017-08-29T06:54:13.880Z,21.40
2017-08-29T06:56:41.360Z,22.20
2017-08-29T06:59:08.864Z,23.00
2017-08-29T07:01:36.347Z,23.80
2017-08-29T07:04:03.853Z,24.60
2017-08-29T07:06:31.337Z,25.30
2017-08-29T07:08:58.839Z,26.00
2017-08-29T07:11:26.332Z,26.60
2017-08-29T07:13:53.831Z,26.90
2017-08-29T07:16:21.319Z,27.10
2017-08-29T07:18:48.820Z,27.10
2017-08-29T07:21:16.304Z,26.90
2017-08-29T07:23:43.803Z,26.10
2017-08-29T07:26:11.284Z,25.40
2017-08-29T07:28:38.779Z,25.40
2017-08-29T07:31:06.263Z,25.40
2017-08-29T07:33:33.768Z,25.40
2017-08-29T07:36:01.256Z,25.20
2017-08-29T07:38:28.776Z,25.10
2017-08-29T07:40:56.256Z,25.00
2017-08-29T07:43:23.741Z,24.90
2017-08-29T07:45:51.252Z,24.80
2017-08-29T07:48:18.732Z,24.90
2017-08-29T07:50:46.240Z,25.00
2017-08-29T07:53:13.729Z,25.10
2017-08-29T07:55:41.227Z,25.20
2017-08-29T07:58:08.721Z,25.20
2017-08-29T08:00:36.225Z,25.20
2017-08-29T08:03:03.716Z,25.30
2017-08-29T08:05:31.220Z,25.40
2017-08-29T08:07:58.706Z,25.30
2017-08-29T08:10:26.211Z,25.40
2017-08-29T08:12:53.699Z,25.60
2017-08-29T08:15:21.201Z,25.70
2017-08-29T08:17:48.684Z,25.80
2017-08-29T08:20:16.187Z,26.00
2017-08-29T08:22:43.668Z,26.00
2017-08-29T08:25:11.164Z,26.00
2017-08-29T08:27:38.644Z,26.10
2017-08-29T08:30:06.147Z,26.20
2017-08-29T08:32:33.631Z,26.30
2017-08-29T08:35:01.132Z,26.30
2017-08-29T08:37:28.620Z,26.20
2017-08-29T08:39:56.125Z,26.10
2017-08-29T08:42:23.603Z,26.20
2017-08-29T08:44:51.093Z,26.20
2017-08-29T08:47:18.596Z,26.30
2017-08-29T08:49:46.096Z,26.50
2017-08-29T08:52:13.599Z,26.60
2017-08-29T08:54:41.080Z,26.70
2017-08-29T08:57:08.604Z,26.80
2017-08-29T08:59:36.080Z,26.80
2017-08-29T09:02:03.584Z,26.90
2017-08-29T09:04:31.067Z,27.00
2017-08-29T09:06:58.571Z,27.10
2017-08-29T09:09:26.056Z,27.30
2017-08-29T09:11:53.555Z,27.30
2017-08-29T09:14:21.035Z,27.30
2017-08-29T09:16:48.532Z,27.30
2017-08-29T09:19:16.015Z,27.10
2017-08-29T09:21:43.516Z,27.10
2017-08-29T09:24:11.012Z,27.40
2017-08-29T09:26:38.516Z,27.10
2017-08-29T09:29:06.000Z,27.30
2017-08-29T09:31:33.506Z,27.50
2017-08-29T09:34:00.988Z,27.60
2017-08-29T09:36:28.483Z,27.60
2017-08-29T09:38:55.972Z,27.70
2017-08-29T09:41:23.471Z,27.80
2017-08-29T09:43:50.956Z,27.90
2017-08-29T09:46:18.461Z,28.10
2017-08-29T09:48:45.944Z,28.20
2017-08-29T09:51:13.432Z,28.40
2017-08-29T09:53:40.936Z,28.60
2017-08-29T09:56:08.425Z,28.60
2017-08-29T09:58:35.924Z,28.50
2017-08-29T10:01:03.403Z,28.60
2017-08-29T10:03:30.895Z,28.90
2017-08-29T10:05:58.387Z,29.00
2017-08-29T10:08:25.891Z,29.00
2017-08-29T10:10:53.368Z,29.10
2017-08-29T10:13:20.872Z,29.30
2017-08-29T10:15:48.356Z,29.20
2017-08-29T10:18:15.855Z,29.20
2017-08-29T10:20:43.340Z,29.30
2017-08-29T10:23:10.842Z,29.30
2017-08-29T10:25:38.336Z,29.20
2017-08-29T10:28:05.839Z,29.20
2017-08-29T10:30:33.316Z,29.30
2017-08-29T10:33:00.812Z,29.40
2017-08-29T10:35:28.300Z,29.40
2017-08-29T10:37:55.799Z,29.40
2017-08-29T10:40:23.325Z,29.40
2017-08-29T10:42:50.832Z,29.40
2017-08-29T10:45:18.312Z,29.50
2017-08-29T10:47:45.813Z,29.60
2017-08-29T10:50:13.304Z,29.80
2017-08-29T10:52:40.807Z,29.80
2017-08-29T10:55:08.284Z,29.90
2017-08-29T10:57:35.760Z,30.00
2017-08-29T11:00:03.272Z,30.10
2017-08-29T11:02:30.744Z,30.30
2017-08-29T11:04:58.247Z,30.30
2017-08-29T11:07:25.736Z,30.10
2017-08-29T11:09:53.236Z,30.10
2017-08-29T11:12:20.717Z,29.90
2017-08-29T11:14:48.224Z,29.80
2017-08-29T11:17:15.712Z,29.80
2017-08-29T11:19:43.224Z,29.50
2017-08-29T11:22:10.699Z,29.50
2017-08-29T11:24:38.208Z,29.60
2017-08-29T11:27:05.692Z,29.60
2017-08-29T11:29:33.196Z,29.30
2017-08-29T11:32:00.693Z,29.30
2017-08-29T11:34:28.205Z,29.30
2017-08-29T11:36:55.692Z,29.20
2017-08-29T11:39:23.187Z,29.20
2017-08-29T11:41:50.684Z,29.20
2017-08-29T11:44:18.187Z,29.20
2017-08-29T11:46:45.686Z,29.00
2017-08-29T11:49:13.191Z,29.00
2017-08-29T11:51:40.668Z,28.90
2017-08-29T11:54:08.185Z,29.00
2017-08-29T11:56:35.676Z,29.00
2017-08-29T11:59:03.160Z,28.80
2017-08-29T12:01:30.663Z,28.70
2017-08-29T12:03:58.152Z,28.80
2017-08-29T12:06:25.656Z,28.70
2017-08-29T12:08:53.140Z,28.60
2017-08-29T12:11:20.643Z,28.70
2017-08-29T12:13:48.135Z,28.70
2017-08-29T12:16:15.662Z,28.60
2017-08-29T12:18:43.153Z,28.60
2017-08-29T12:21:10.659Z,28.50
2017-08-29T12:23:38.140Z,28.50
2017-08-29T12:26:05.647Z,28.50
2017-08-29T12:28:33.140Z,28.50
2017-08-29T12:31:00.644Z,28.50
2017-08-29T12:33:28.123Z,28.40
2017-08-29T12:35:55.620Z,28.40
2017-08-29T12:38:23.103Z,28.30
2017-08-29T12:40:50.603Z,28.30
2017-08-29T12:43:18.087Z,28.40
2017-08-29T12:45:45.584Z,28.40
2017-08-29T12:48:13.064Z,28.40
2017-08-29T12:50:40.593Z,28.30
2017-08-29T12:53:08.056Z,28.40
2017-08-29T12:55:35.561Z,28.40
2017-08-29T12:58:03.074Z,28.30
2017-08-29T13:00:30.571Z,28.40
2017-08-29T13:02:58.057Z,28.50
2017-08-29T13:05:25.575Z,28.40
2017-08-29T13:07:53.059Z,28.40
2017-08-29T13:10:20.536Z,28.40
2017-08-29T13:12:48.043Z,28.40
2017-08-29T13:15:15.528Z,28.40
2017-08-29T13:17:43.050Z,28.50
2017-08-29T13:20:10.544Z,28.40
2017-08-29T13:22:38.052Z,28.40
2017-08-29T13:25:05.537Z,28.40
2017-08-29T13:27:33.052Z,28.40
2017-08-29T13:30:00.539Z,28.40
2017-08-29T13:32:28.048Z,28.40
2017-08-29T13:34:55.531Z,28.30
2017-08-29T13:37:23.049Z,28.20
2017-08-29T13:39:50.531Z,28.10
2017-08-29T13:42:18.043Z,28.10
2017-08-29T13:44:45.523Z,28.20
2017-08-29T13:47:13.040Z,28.10
2017-08-29T13:49:40.540Z,28.10
2017-08-29T13:52:08.046Z,28.20
2017-08-29T13:54:35.530Z,28.20
2017-08-29T13:57:03.035Z,28.20
2017-08-29T13:59:30.547Z,28.10
2017-08-29T14:01:58.080Z,28.00
2017-08-29T14:04:25.560Z,28.00
2017-08-29T14:06:53.044Z,28.00
2017-08-29T14:09:20.544Z,28.20
2017-08-29T14:11:48.028Z,28.30
2017-08-29T14:14:15.543Z,28.30
2017-08-29T14:16:43.026Z,28.30
2017-08-29T14:19:10.527Z,28.30
2017-08-29T14:21:38.785Z,28.30
2017-08-29T14:24:06.287Z,28.20
2017-08-29T14:26:33.821Z,28.20
2017-08-29T14:29:01.324Z,28.10
2017-08-29T14:31:28.808Z,28.10
2017-08-29T14:33:56.313Z,28.10
2017-08-29T14:36:23.796Z,28.10
2017-08-29T14:38:51.304Z,28.10
2017-08-29T14:41:18.788Z,28.10
2017-08-29T14:43:46.295Z,28.10
2017-08-29T14:46:13.780Z,28.10
2017-08-29T14:48:53.104Z,28.10
2017-08-29T14:51:20.588Z,28.10
2017-08-29T14:53:48.099Z,28.00
2017-08-29T14:56:15.588Z,28.00
2017-08-29T14:58:43.088Z,28.00
2017-08-29T15:01:10.576Z,28.00
2017-08-29T15:03:38.088Z,28.00
2017-08-29T15:06:05.567Z,28.00
2017-08-29T15:08:33.070Z,28.10
2017-08-29T15:11:00.548Z,28.10
2017-08-29T15:13:28.053Z,28.00
2017-08-29T15:15:55.535Z,28.00
2017-08-29T15:18:23.045Z,28.20
2017-08-29T15:20:50.532Z,28.30
2017-08-29T15:23:18.011Z,28.40
2017-08-29T15:25:45.507Z,28.30
2017-08-29T15:28:12.997Z,28.30
2017-08-29T15:30:40.501Z,28.10
2017-08-29T15:33:07.985Z,28.20
2017-08-29T15:35:35.489Z,28.10
2017-08-29T15:38:02.983Z,28.10
2017-08-29T15:40:30.482Z,28.10
2017-08-29T15:42:57.968Z,28.10
2017-08-29T15:45:25.477Z,28.20
2017-08-29T15:47:52.964Z,28.10
2017-08-29T15:50:20.471Z,28.30
2017-08-29T15:52:47.952Z,28.30
2017-08-29T15:55:15.460Z,28.30
2017-08-29T15:57:42.943Z,28.30
2017-08-29T16:00:10.457Z,28.40
2017-08-29T16:02:37.947Z,28.40
2017-08-29T16:05:05.455Z,28.30
2017-08-29T16:07:32.943Z,28.40
2017-08-29T16:10:00.468Z,28.30
2017-08-29T16:12:27.951Z,28.20
2017-08-29T16:14:55.436Z,28.40
2017-08-29T16:17:22.940Z,28.40
2017-08-29T16:19:50.428Z,28.40
2017-08-29T16:22:17.927Z,28.40
2017-08-29T16:24:45.416Z,28.50
2017-08-29T16:27:12.926Z,28.40
2017-08-29T16:29:40.420Z,28.40
2017-08-29T16:32:07.929Z,28.40
2017-08-29T16:34:35.412Z,28.40
2017-08-29T16:37:02.917Z,28.20
2017-08-29T16:39:30.405Z,28.20
2017-08-29T16:41:57.907Z,28.10
2017-08-29T16:44:25.388Z,28.00
2017-08-29T16:46:52.899Z,28.00
2017-08-29T16:49:20.392Z,28.00
2017-08-29T16:51:47.897Z,28.00
2017-08-29T16:54:15.379Z,27.90
2017-08-29T16:56:42.876Z,28.00
2017-08-29T16:59:10.363Z,28.00
2017-08-29T17:01:37.872Z,28.00
2017-08-29T17:04:05.360Z,28.00
2017-08-29T17:06:32.868Z,28.00
2017-08-29T17:09:00.355Z,27.90
2017-08-29T17:11:27.876Z,27.90
2017-08-29T17:13:55.368Z,27.90
2017-08-29T17:16:22.868Z,27.90
2017-08-29T17:18:50.376Z,27.80
2017-08-29T17:21:17.860Z,27.80
2017-08-29T17:23:45.372Z,27.80
2017-08-29T17:26:12.860Z,27.70
2017-08-29T17:28:40.382Z,27.70
2017-08-29T17:31:07.869Z,27.70
2017-08-29T17:33:35.376Z,27.70
2017-08-29T17:36:02.861Z,27.70
2017-08-29T17:38:30.359Z,27.70
2017-08-29T17:40:57.849Z,27.70
2017-08-29T17:43:25.355Z,27.70
2017-08-29T17:45:52.845Z,27.70
2017-08-29T17:48:20.360Z,27.70
2017-08-29T17:50:47.844Z,27.60
2017-08-29T17:53:15.367Z,27.60
2017-08-29T17:55:42.852Z,27.60
2017-08-29T17:58:11.125Z,27.70
2017-08-29T18:00:38.610Z,27.60
2017-08-29T18:03:06.088Z,27.60
2017-08-29T18:05:33.596Z,27.50
2017-08-29T18:08:01.080Z,27.50
2017-08-29T18:10:28.584Z,27.50
2017-08-29T18:12:56.071Z,27.50
2017-08-29T18:15:23.577Z,27.40
2017-08-29T18:17:51.069Z,27.30
2017-08-29T18:20:18.579Z,27.20
2017-08-29T18:22:46.068Z,27.10
2017-08-29T18:25:13.571Z,27.00
2017-08-29T18:27:41.257Z,26.90
2017-08-29T18:30:08.757Z,26.80
2017-08-29T18:32:36.243Z,26.80
2017-08-29T18:35:03.744Z,26.70
2017-08-29T18:37:31.227Z,26.60
2017-08-29T18:39:58.728Z,26.50
2017-08-29T18:42:26.219Z,26.30
2017-08-29T18:44:53.730Z,26.30
2017-08-29T18:47:21.221Z,26.30
2017-08-29T18:49:48.724Z,26.30
2017-08-29T18:52:16.224Z,26.20
2017-08-29T18:54:43.735Z,26.20
2017-08-29T18:57:11.224Z,26.20
2017-08-29T18:59:38.712Z,26.10
2017-08-29T19:02:06.216Z,26.10
2017-08-29T19:04:33.697Z,26.10
2017-08-29T19:07:01.212Z,26.10
2017-08-29T19:09:28.712Z,25.90
2017-08-29T19:11:56.220Z,25.90
2017-08-29T19:14:23.712Z,25.80
2017-08-29T19:16:51.211Z,25.80
2017-08-29T19:19:18.699Z,25.70
2017-08-29T19:21:46.195Z,25.70
2017-08-29T19:24:13.691Z,25.80
2017-08-29T19:26:41.187Z,25.60
2017-08-29T19:29:08.672Z,25.40
2017-08-29T19:31:36.184Z,25.40
2017-08-29T19:34:03.676Z,25.40
2017-08-29T19:36:31.181Z,25.50
2017-08-29T19:38:58.669Z,25.50
2017-08-29T19:41:26.176Z,25.50
2017-08-29T19:43:53.656Z,25.30
2017-08-29T19:46:21.161Z,25.30
2017-08-29T19:48:48.655Z,25.30
2017-08-29T19:51:16.164Z,25.40
2017-08-29T19:53:43.667Z,25.40
2017-08-29T19:56:11.143Z,25.30
2017-08-29T19:58:38.652Z,25.30
2017-08-29T20:01:06.148Z,25.40
2017-08-29T20:03:33.656Z,25.10
2017-08-29T20:06:01.152Z,25.00
2017-08-29T20:08:28.652Z,24.70
2017-08-29T20:10:56.140Z,24.70
2017-08-29T20:13:23.652Z,24.70
2017-08-29T20:15:51.140Z,24.70
2017-08-29T20:18:18.644Z,24.60
2017-08-29T20:20:46.131Z,24.50
2017-08-29T20:23:13.641Z,24.60
2017-08-29T20:25:41.123Z,24.60
2017-08-29T20:28:08.633Z,24.60
2017-08-29T20:30:36.119Z,24.60
2017-08-29T20:33:03.632Z,24.50
2017-08-29T20:35:31.116Z,24.50
2017-08-29T20:37:58.620Z,24.60
2017-08-29T20:40:26.107Z,24.50
2017-08-29T20:42:53.652Z,24.60
2017-08-29T20:45:21.143Z,24.50
2017-08-29T20:47:48.632Z,24.30
2017-08-29T20:50:16.141Z,24.10
2017-08-29T20:52:43.623Z,24.10
2017-08-29T20:55:11.127Z,24.20
2017-08-29T20:57:38.621Z,24.20
2017-08-29T21:00:06.128Z,24.30
2017-08-29T21:02:33.620Z,24.40
2017-08-29T21:05:01.131Z,24.30
2017-08-29T21:07:28.624Z,24.30
2017-08-29T21:09:56.136Z,24.30
2017-08-29T21:12:23.626Z,24.20
2017-08-29T21:14:51.130Z,24.20
2017-08-29T21:17:18.609Z,24.20
2017-08-29T21:19:46.107Z,24.20
2017-08-29T21:22:13.593Z,24.20
2017-08-29T21:24:41.112Z,24.30
2017-08-29T21:27:08.612Z,24.40
2017-08-29T21:29:36.120Z,24.30
2017-08-29T21:32:03.617Z,24.30
2017-08-29T21:34:31.131Z,24.30
2017-08-29T21:36:58.617Z,24.40
2017-08-29T21:39:26.123Z,24.40
2017-08-29T21:41:53.599Z,24.40
2017-08-29T21:44:21.096Z,24.50
2017-08-29T21:46:48.581Z,24.50
2017-08-29T21:49:16.072Z,24.40
2017-08-29T21:51:43.583Z,24.40
2017-08-29T21:54:11.072Z,24.40
2017-08-29T21:56:38.588Z,24.40
2017-08-29T21:59:06.076Z,24.40
2017-08-29T22:01:33.579Z,24.40
2017-08-29T22:04:01.057Z,24.40
2017-08-29T22:06:28.563Z,24.30
2017-08-29T22:08:56.057Z,24.40
2017-08-29T22:11:23.565Z,24.30
2017-08-29T22:13:51.056Z,24.30
2017-08-29T22:16:18.569Z,24.20
2017-08-29T22:18:46.827Z,24.30
2017-08-29T22:21:14.341Z,24.20
2017-08-29T22:23:41.831Z,24.20
2017-08-29T22:26:09.343Z,24.20
2017-08-29T22:28:36.837Z,24.20
2017-08-29T22:31:04.344Z,24.20
2017-08-29T22:33:31.832Z,24.20
2017-08-29T22:35:59.331Z,24.20
2017-08-29T22:38:26.824Z,24.10
2017-08-29T22:40:54.327Z,24.10
2017-08-29T22:43:21.816Z,24.10
2017-08-29T22:45:49.319Z,24.20
2017-08-29T22:48:16.812Z,24.10
2017-08-29T22:50:44.320Z,24.10
2017-08-29T22:53:11.812Z,24.10
2017-08-29T22:55:39.300Z,24.10
2017-08-29T22:58:06.812Z,24.10
2017-08-29T23:00:34.295Z,24.10
2017-08-29T23:03:01.820Z,24.00
2017-08-29T23:05:29.304Z,24.00
2017-08-29T23:07:56.811Z,23.90
2017-08-29T23:10:24.297Z,23.90
2017-08-29T23:12:52.645Z,23.90
2017-08-29T23:15:20.132Z,23.80
2017-08-29T23:17:47.651Z,23.80
2017-08-29T23:20:15.133Z,23.70
2017-08-29T23:22:42.651Z,23.70
2017-08-29T23:25:10.144Z,23.60
2017-08-29T23:27:37.647Z,23.60
2017-08-29T23:30:05.127Z,23.60
2017-08-29T23:32:32.634Z,23.50
2017-08-29T23:35:00.879Z,23.40
2017-08-29T23:37:28.384Z,23.40
2017-08-29T23:39:55.864Z,23.40
2017-08-29T23:42:23.375Z,23.40
2017-08-29T23:44:50.860Z,23.40
2017-08-29T23:47:18.368Z,23.30
2017-08-29T23:49:45.860Z,23.30
2017-08-29T23:52:13.366Z,23.30
2017-08-29T23:54:40.852Z,23.20
2017-08-29T23:57:08.334Z,23.20
2017-08-29T23:59:35.843Z,23.20
